sensor_id;sensor_type;location;lat;lon;timestamp;P1;durP1;ratioP1;P2;durP2;ratioP2
84913;SDS011;75177;43.832;5.974;2024-03-02T00:00:04;79.60;;;21.55;;
84913;SDS011;75177;43.832;5.974;2024-03-02T00:02:42;112.20;;;31.85;;
84913;SDS011;75177;43.832;5.974;2024-03-02T00:05:12;50.22;;;16.60;;
84913;SDS011;75177;43.832;5.974;2024-03-02T00:07:43;38.63;;;15.05;;
84913;SDS011;75177;43.832;5.974;2024-03-02T00:10:10;55.85;;;16.40;;
84913;SDS011;75177;43.832;5.974;2024-03-02T00:12:40;32.45;;;11.40;;
84913;SDS011;75177;43.832;5.974;2024-03-02T00:18:08;27.40;;;11.20;;
84913;SDS011;75177;43.832;5.974;2024-03-02T00:20:36;30.50;;;10.98;;
84913;SDS011;75177;43.832;5.974;2024-03-02T00:23:05;20.55;;;8.60;;
84913;SDS011;75177;43.832;5.974;2024-03-02T00:25:36;39.25;;;14.13;;
84913;SDS011;75177;43.832;5.974;2024-03-02T00:28:13;42.80;;;16.45;;
84913;SDS011;75177;43.832;5.974;2024-03-02T00:33:19;59.47;;;21.52;;
84913;SDS011;75177;43.832;5.974;2024-03-02T00:35:46;62.40;;;23.10;;
84913;SDS011;75177;43.832;5.974;2024-03-02T00:38:11;76.30;;;30.70;;
84913;SDS011;75177;43.832;5.974;2024-03-02T00:40:39;49.70;;;19.40;;
84913;SDS011;75177;43.832;5.974;2024-03-02T00:43:05;39.65;;;16.55;;
84913;SDS011;75177;43.832;5.974;2024-03-02T00:45:30;29.08;;;11.65;;
84913;SDS011;75177;43.832;5.974;2024-03-02T00:47:56;33.80;;;12.93;;
84913;SDS011;75177;43.832;5.974;2024-03-02T00:50:22;21.80;;;9.05;;
84913;SDS011;75177;43.832;5.974;2024-03-02T00:52:47;23.13;;;9.68;;
84913;SDS011;75177;43.832;5.974;2024-03-02T00:55:16;18.70;;;7.18;;
84913;SDS011;75177;43.832;5.974;2024-03-02T00:57:41;20.25;;;6.55;;
84913;SDS011;75177;43.832;5.974;2024-03-02T01:00:07;12.27;;;5.30;;
84913;SDS011;75177;43.832;5.974;2024-03-02T01:02:35;22.40;;;10.05;;
84913;SDS011;75177;43.832;5.974;2024-03-02T01:05:01;19.02;;;7.65;;
84913;SDS011;75177;43.832;5.974;2024-03-02T01:07:26;12.52;;;6.07;;
84913;SDS011;75177;43.832;5.974;2024-03-02T01:09:51;12.10;;;4.70;;
84913;SDS011;75177;43.832;5.974;2024-03-02T01:12:17;13.75;;;4.80;;
84913;SDS011;75177;43.832;5.974;2024-03-02T01:14:42;10.70;;;4.47;;
84913;SDS011;75177;43.832;5.974;2024-03-02T01:17:08;9.50;;;4.30;;
84913;SDS011;75177;43.832;5.974;2024-03-02T01:19:33;11.77;;;4.50;;
84913;SDS011;75177;43.832;5.974;2024-03-02T01:21:58;34.00;;;15.23;;
84913;SDS011;75177;43.832;5.974;2024-03-02T01:24:24;24.30;;;11.13;;
84913;SDS011;75177;43.832;5.974;2024-03-02T01:26:49;23.73;;;8.13;;
84913;SDS011;75177;43.832;5.974;2024-03-02T01:29:15;22.88;;;9.45;;
84913;SDS011;75177;43.832;5.974;2024-03-02T01:31:41;17.02;;;6.68;;
84913;SDS011;75177;43.832;5.974;2024-03-02T01:34:07;10.13;;;5.45;;
84913;SDS011;75177;43.832;5.974;2024-03-02T01:36:33;11.45;;;5.25;;
84913;SDS011;75177;43.832;5.974;2024-03-02T01:38:59;9.98;;;4.97;;
84913;SDS011;75177;43.832;5.974;2024-03-02T01:41:24;10.18;;;4.30;;
84913;SDS011;75177;43.832;5.974;2024-03-02T01:43:50;10.63;;;4.57;;
84913;SDS011;75177;43.832;5.974;2024-03-02T01:46:16;10.25;;;4.93;;
84913;SDS011;75177;43.832;5.974;2024-03-02T01:48:41;13.05;;;5.97;;
84913;SDS011;75177;43.832;5.974;2024-03-02T01:51:07;12.85;;;6.03;;
84913;SDS011;75177;43.832;5.974;2024-03-02T01:53:33;16.73;;;6.93;;
84913;SDS011;75177;43.832;5.974;2024-03-02T01:55:59;8.32;;;4.57;;
84913;SDS011;75177;43.832;5.974;2024-03-02T01:58:26;14.43;;;5.00;;
84913;SDS011;75177;43.832;5.974;2024-03-02T02:00:52;13.10;;;5.65;;
84913;SDS011;75177;43.832;5.974;2024-03-02T02:03:17;13.02;;;6.32;;
84913;SDS011;75177;43.832;5.974;2024-03-02T02:05:43;12.80;;;6.35;;
84913;SDS011;75177;43.832;5.974;2024-03-02T02:08:08;16.98;;;5.82;;
84913;SDS011;75177;43.832;5.974;2024-03-02T02:10:33;12.68;;;5.70;;
84913;SDS011;75177;43.832;5.974;2024-03-02T02:12:59;12.45;;;4.85;;
84913;SDS011;75177;43.832;5.974;2024-03-02T02:17:51;9.55;;;4.60;;
84913;SDS011;75177;43.832;5.974;2024-03-02T02:20:17;22.20;;;9.20;;
84913;SDS011;75177;43.832;5.974;2024-03-02T02:23:00;25.00;;;10.60;;
84913;SDS011;75177;43.832;5.974;2024-03-02T02:25:27;16.45;;;6.88;;
84913;SDS011;75177;43.832;5.974;2024-03-02T02:27:53;21.27;;;7.80;;
84913;SDS011;75177;43.832;5.974;2024-03-02T02:30:22;30.13;;;11.85;;
84913;SDS011;75177;43.832;5.974;2024-03-02T02:32:55;20.50;;;7.85;;
84913;SDS011;75177;43.832;5.974;2024-03-02T02:35:21;21.15;;;9.07;;
84913;SDS011;75177;43.832;5.974;2024-03-02T02:37:47;25.70;;;9.98;;
84913;SDS011;75177;43.832;5.974;2024-03-02T02:40:13;71.15;;;27.77;;
84913;SDS011;75177;43.832;5.974;2024-03-02T02:42:39;36.65;;;14.52;;
84913;SDS011;75177;43.832;5.974;2024-03-02T02:45:05;19.08;;;6.65;;
84913;SDS011;75177;43.832;5.974;2024-03-02T02:47:31;11.88;;;5.40;;
84913;SDS011;75177;43.832;5.974;2024-03-02T02:50:00;11.85;;;5.93;;
84913;SDS011;75177;43.832;5.974;2024-03-02T02:52:30;33.35;;;12.85;;
84913;SDS011;75177;43.832;5.974;2024-03-02T02:54:58;34.50;;;13.90;;
84913;SDS011;75177;43.832;5.974;2024-03-02T02:57:23;28.98;;;11.77;;
84913;SDS011;75177;43.832;5.974;2024-03-02T02:59:49;22.15;;;9.27;;
84913;SDS011;75177;43.832;5.974;2024-03-02T03:02:14;17.65;;;7.80;;
84913;SDS011;75177;43.832;5.974;2024-03-02T03:04:40;21.85;;;7.45;;
84913;SDS011;75177;43.832;5.974;2024-03-02T03:07:05;12.55;;;6.03;;
84913;SDS011;75177;43.832;5.974;2024-03-02T03:09:31;14.23;;;5.90;;
84913;SDS011;75177;43.832;5.974;2024-03-02T03:11:56;13.27;;;5.70;;
84913;SDS011;75177;43.832;5.974;2024-03-02T03:14:22;19.80;;;7.78;;
84913;SDS011;75177;43.832;5.974;2024-03-02T03:16:47;9.77;;;5.43;;
84913;SDS011;75177;43.832;5.974;2024-03-02T03:19:13;11.52;;;4.95;;
84913;SDS011;75177;43.832;5.974;2024-03-02T03:21:39;22.15;;;9.85;;
84913;SDS011;75177;43.832;5.974;2024-03-02T03:24:04;26.13;;;10.38;;
84913;SDS011;75177;43.832;5.974;2024-03-02T03:26:30;23.98;;;9.55;;
84913;SDS011;75177;43.832;5.974;2024-03-02T03:28:55;27.70;;;9.90;;
84913;SDS011;75177;43.832;5.974;2024-03-02T03:31:20;19.00;;;7.47;;
84913;SDS011;75177;43.832;5.974;2024-03-02T03:33:46;17.08;;;6.13;;
84913;SDS011;75177;43.832;5.974;2024-03-02T03:36:11;13.15;;;5.55;;
84913;SDS011;75177;43.832;5.974;2024-03-02T03:38:36;10.13;;;4.68;;
84913;SDS011;75177;43.832;5.974;2024-03-02T03:41:02;15.10;;;6.45;;
84913;SDS011;75177;43.832;5.974;2024-03-02T03:43:28;12.80;;;5.63;;
84913;SDS011;75177;43.832;5.974;2024-03-02T03:45:54;18.60;;;7.53;;
84913;SDS011;75177;43.832;5.974;2024-03-02T03:48:19;13.35;;;6.15;;
84913;SDS011;75177;43.832;5.974;2024-03-02T03:50:45;11.00;;;5.55;;
84913;SDS011;75177;43.832;5.974;2024-03-02T03:53:10;16.05;;;7.93;;
84913;SDS011;75177;43.832;5.974;2024-03-02T03:55:36;22.52;;;7.53;;
84913;SDS011;75177;43.832;5.974;2024-03-02T03:58:01;10.60;;;5.63;;
84913;SDS011;75177;43.832;5.974;2024-03-02T04:00:26;15.95;;;7.00;;
84913;SDS011;75177;43.832;5.974;2024-03-02T04:02:52;25.98;;;12.27;;
84913;SDS011;75177;43.832;5.974;2024-03-02T04:05:17;22.35;;;11.05;;
84913;SDS011;75177;43.832;5.974;2024-03-02T04:07:43;15.95;;;8.55;;
84913;SDS011;75177;43.832;5.974;2024-03-02T04:10:08;16.35;;;6.93;;
84913;SDS011;75177;43.832;5.974;2024-03-02T04:12:37;8.32;;;4.38;;
84913;SDS011;75177;43.832;5.974;2024-03-02T04:19:57;16.13;;;7.40;;
84913;SDS011;75177;43.832;5.974;2024-03-02T04:22:22;23.13;;;9.02;;
84913;SDS011;75177;43.832;5.974;2024-03-02T04:24:48;16.15;;;6.72;;
84913;SDS011;75177;43.832;5.974;2024-03-02T04:27:13;12.88;;;6.18;;
84913;SDS011;75177;43.832;5.974;2024-03-02T04:29:39;25.98;;;11.70;;
84913;SDS011;75177;43.832;5.974;2024-03-02T04:32:04;37.97;;;16.35;;
84913;SDS011;75177;43.832;5.974;2024-03-02T04:34:29;35.95;;;16.38;;
84913;SDS011;75177;43.832;5.974;2024-03-02T04:36:55;40.47;;;18.38;;
84913;SDS011;75177;43.832;5.974;2024-03-02T04:39:20;27.52;;;12.82;;
84913;SDS011;75177;43.832;5.974;2024-03-02T04:41:46;23.20;;;10.48;;
84913;SDS011;75177;43.832;5.974;2024-03-02T04:44:11;16.30;;;7.90;;
84913;SDS011;75177;43.832;5.974;2024-03-02T04:46:37;16.13;;;7.60;;
84913;SDS011;75177;43.832;5.974;2024-03-02T04:49:02;51.55;;;22.13;;
84913;SDS011;75177;43.832;5.974;2024-03-02T04:51:27;59.50;;;24.83;;
84913;SDS011;75177;43.832;5.974;2024-03-02T04:53:53;59.50;;;26.42;;
84913;SDS011;75177;43.832;5.974;2024-03-02T04:56:18;33.92;;;16.27;;
84913;SDS011;75177;43.832;5.974;2024-03-02T04:58:56;17.73;;;7.78;;
84913;SDS011;75177;43.832;5.974;2024-03-02T05:01:21;21.42;;;10.50;;
84913;SDS011;75177;43.832;5.974;2024-03-02T05:03:47;54.30;;;23.25;;
84913;SDS011;75177;43.832;5.974;2024-03-02T05:06:12;81.47;;;34.47;;
84913;SDS011;75177;43.832;5.974;2024-03-02T05:08:37;62.45;;;25.83;;
84913;SDS011;75177;43.832;5.974;2024-03-02T05:11:03;58.42;;;24.73;;
84913;SDS011;75177;43.832;5.974;2024-03-02T05:13:47;90.82;;;38.55;;
84913;SDS011;75177;43.832;5.974;2024-03-02T05:16:12;70.95;;;30.38;;
84913;SDS011;75177;43.832;5.974;2024-03-02T05:18:37;74.05;;;32.17;;
84913;SDS011;75177;43.832;5.974;2024-03-02T05:21:03;61.30;;;26.92;;
84913;SDS011;75177;43.832;5.974;2024-03-02T05:23:29;54.47;;;23.77;;
84913;SDS011;75177;43.832;5.974;2024-03-02T05:25:54;32.75;;;15.05;;
84913;SDS011;75177;43.832;5.974;2024-03-02T05:28:19;16.05;;;7.00;;
84913;SDS011;75177;43.832;5.974;2024-03-02T05:30:45;12.27;;;5.50;;
84913;SDS011;75177;43.832;5.974;2024-03-02T05:33:11;16.10;;;6.82;;
84913;SDS011;75177;43.832;5.974;2024-03-02T05:35:36;14.38;;;7.65;;
84913;SDS011;75177;43.832;5.974;2024-03-02T05:38:02;13.30;;;5.90;;
84913;SDS011;75177;43.832;5.974;2024-03-02T05:40:27;12.18;;;5.97;;
84913;SDS011;75177;43.832;5.974;2024-03-02T05:42:53;13.45;;;5.40;;
84913;SDS011;75177;43.832;5.974;2024-03-02T05:45:18;11.93;;;5.82;;
84913;SDS011;75177;43.832;5.974;2024-03-02T05:47:43;9.45;;;5.57;;
84913;SDS011;75177;43.832;5.974;2024-03-02T05:50:09;11.38;;;5.90;;
84913;SDS011;75177;43.832;5.974;2024-03-02T05:52:34;10.02;;;4.65;;
84913;SDS011;75177;43.832;5.974;2024-03-02T05:55:00;8.63;;;4.90;;
84913;SDS011;75177;43.832;5.974;2024-03-02T05:57:25;9.75;;;4.63;;
84913;SDS011;75177;43.832;5.974;2024-03-02T06:00:14;15.55;;;5.95;;
84913;SDS011;75177;43.832;5.974;2024-03-02T06:05:07;14.40;;;6.35;;
84913;SDS011;75177;43.832;5.974;2024-03-02T06:07:33;16.67;;;6.85;;
84913;SDS011;75177;43.832;5.974;2024-03-02T06:09:59;16.20;;;6.50;;
84913;SDS011;75177;43.832;5.974;2024-03-02T06:12:24;14.35;;;6.95;;
84913;SDS011;75177;43.832;5.974;2024-03-02T06:14:50;12.00;;;6.47;;
84913;SDS011;75177;43.832;5.974;2024-03-02T06:17:15;14.88;;;6.25;;
84913;SDS011;75177;43.832;5.974;2024-03-02T06:19:42;12.17;;;5.93;;
84913;SDS011;75177;43.832;5.974;2024-03-02T06:22:07;13.25;;;5.90;;
84913;SDS011;75177;43.832;5.974;2024-03-02T06:24:36;11.23;;;5.28;;
84913;SDS011;75177;43.832;5.974;2024-03-02T06:27:02;8.85;;;5.03;;
84913;SDS011;75177;43.832;5.974;2024-03-02T06:29:28;9.13;;;4.88;;
84913;SDS011;75177;43.832;5.974;2024-03-02T06:31:53;10.45;;;4.80;;
84913;SDS011;75177;43.832;5.974;2024-03-02T06:34:18;12.38;;;6.20;;
84913;SDS011;75177;43.832;5.974;2024-03-02T06:36:44;10.90;;;5.63;;
84913;SDS011;75177;43.832;5.974;2024-03-02T06:39:09;12.38;;;5.68;;
84913;SDS011;75177;43.832;5.974;2024-03-02T06:41:35;15.43;;;5.50;;
84913;SDS011;75177;43.832;5.974;2024-03-02T06:44:00;11.95;;;5.50;;
84913;SDS011;75177;43.832;5.974;2024-03-02T06:46:26;11.77;;;5.55;;
84913;SDS011;75177;43.832;5.974;2024-03-02T06:48:51;13.10;;;5.80;;
84913;SDS011;75177;43.832;5.974;2024-03-02T06:51:16;8.00;;;4.88;;
84913;SDS011;75177;43.832;5.974;2024-03-02T06:53:42;11.60;;;5.47;;
84913;SDS011;75177;43.832;5.974;2024-03-02T06:56:08;48.53;;;18.73;;
84913;SDS011;75177;43.832;5.974;2024-03-02T06:58:33;47.45;;;17.40;;
84913;SDS011;75177;43.832;5.974;2024-03-02T07:00:58;46.50;;;17.83;;
84913;SDS011;75177;43.832;5.974;2024-03-02T07:03:25;46.67;;;16.65;;
84913;SDS011;75177;43.832;5.974;2024-03-02T07:05:51;42.17;;;16.80;;
84913;SDS011;75177;43.832;5.974;2024-03-02T07:08:16;32.20;;;17.10;;
84913;SDS011;75177;43.832;5.974;2024-03-02T07:10:42;25.20;;;12.15;;
84913;SDS011;75177;43.832;5.974;2024-03-02T07:13:07;24.58;;;12.73;;
84913;SDS011;75177;43.832;5.974;2024-03-02T07:15:33;24.38;;;12.18;;
84913;SDS011;75177;43.832;5.974;2024-03-02T07:18:17;20.30;;;10.23;;
84913;SDS011;75177;43.832;5.974;2024-03-02T07:20:42;26.38;;;12.93;;
84913;SDS011;75177;43.832;5.974;2024-03-02T07:23:08;31.48;;;13.90;;
84913;SDS011;75177;43.832;5.974;2024-03-02T07:25:34;33.03;;;15.55;;
84913;SDS011;75177;43.832;5.974;2024-03-02T07:27:59;43.03;;;18.42;;
84913;SDS011;75177;43.832;5.974;2024-03-02T07:30:25;82.60;;;31.25;;
84913;SDS011;75177;43.832;5.974;2024-03-02T07:32:50;94.57;;;32.22;;
84913;SDS011;75177;43.832;5.974;2024-03-02T07:35:16;73.57;;;28.42;;
84913;SDS011;75177;43.832;5.974;2024-03-02T07:37:41;77.15;;;31.70;;
84913;SDS011;75177;43.832;5.974;2024-03-02T07:40:08;44.95;;;19.27;;
84913;SDS011;75177;43.832;5.974;2024-03-02T07:42:36;33.30;;;14.57;;
84913;SDS011;75177;43.832;5.974;2024-03-02T07:45:03;32.30;;;12.30;;
84913;SDS011;75177;43.832;5.974;2024-03-02T07:47:29;21.67;;;9.45;;
84913;SDS011;75177;43.832;5.974;2024-03-02T07:49:54;11.95;;;5.80;;
84913;SDS011;75177;43.832;5.974;2024-03-02T07:52:20;11.48;;;5.40;;
84913;SDS011;75177;43.832;5.974;2024-03-02T07:54:45;10.55;;;5.38;;
84913;SDS011;75177;43.832;5.974;2024-03-02T07:57:11;9.52;;;4.93;;
84913;SDS011;75177;43.832;5.974;2024-03-02T07:59:36;11.57;;;4.53;;
84913;SDS011;75177;43.832;5.974;2024-03-02T08:02:02;13.10;;;5.63;;
84913;SDS011;75177;43.832;5.974;2024-03-02T08:04:28;10.85;;;5.30;;
84913;SDS011;75177;43.832;5.974;2024-03-02T08:06:53;10.75;;;4.85;;
84913;SDS011;75177;43.832;5.974;2024-03-02T08:09:19;9.80;;;4.25;;
84913;SDS011;75177;43.832;5.974;2024-03-02T08:11:45;7.45;;;3.97;;
84913;SDS011;75177;43.832;5.974;2024-03-02T08:14:10;8.15;;;4.15;;
84913;SDS011;75177;43.832;5.974;2024-03-02T08:16:36;6.15;;;3.65;;
84913;SDS011;75177;43.832;5.974;2024-03-02T08:19:01;12.18;;;5.03;;
84913;SDS011;75177;43.832;5.974;2024-03-02T08:21:26;10.95;;;4.32;;
84913;SDS011;75177;43.832;5.974;2024-03-02T08:23:56;7.15;;;3.90;;
84913;SDS011;75177;43.832;5.974;2024-03-02T08:26:23;5.57;;;3.70;;
84913;SDS011;75177;43.832;5.974;2024-03-02T08:28:48;9.73;;;5.10;;
84913;SDS011;75177;43.832;5.974;2024-03-02T08:31:13;8.15;;;4.50;;
84913;SDS011;75177;43.832;5.974;2024-03-02T08:33:39;15.43;;;6.03;;
84913;SDS011;75177;43.832;5.974;2024-03-02T08:36:05;11.07;;;5.28;;
84913;SDS011;75177;43.832;5.974;2024-03-02T08:38:31;9.05;;;4.25;;
84913;SDS011;75177;43.832;5.974;2024-03-02T08:40:56;12.07;;;5.13;;
84913;SDS011;75177;43.832;5.974;2024-03-02T08:43:22;12.63;;;5.90;;
84913;SDS011;75177;43.832;5.974;2024-03-02T08:45:48;10.05;;;4.57;;
84913;SDS011;75177;43.832;5.974;2024-03-02T08:48:14;9.65;;;4.53;;
84913;SDS011;75177;43.832;5.974;2024-03-02T08:50:39;17.60;;;7.60;;
84913;SDS011;75177;43.832;5.974;2024-03-02T08:53:05;8.05;;;3.92;;
84913;SDS011;75177;43.832;5.974;2024-03-02T08:55:30;7.72;;;3.38;;
84913;SDS011;75177;43.832;5.974;2024-03-02T08:57:56;8.60;;;4.63;;
84913;SDS011;75177;43.832;5.974;2024-03-02T09:00:21;6.78;;;3.58;;
84913;SDS011;75177;43.832;5.974;2024-03-02T09:02:47;10.07;;;5.20;;
84913;SDS011;75177;43.832;5.974;2024-03-02T09:05:12;15.75;;;7.18;;
84913;SDS011;75177;43.832;5.974;2024-03-02T09:07:38;17.52;;;8.77;;
84913;SDS011;75177;43.832;5.974;2024-03-02T09:10:06;15.80;;;8.02;;
84913;SDS011;75177;43.832;5.974;2024-03-02T09:12:32;13.10;;;7.20;;
84913;SDS011;75177;43.832;5.974;2024-03-02T09:14:59;20.55;;;9.18;;
84913;SDS011;75177;43.832;5.974;2024-03-02T09:17:25;16.90;;;8.75;;
84913;SDS011;75177;43.832;5.974;2024-03-02T09:19:51;15.70;;;7.97;;
84913;SDS011;75177;43.832;5.974;2024-03-02T09:22:18;24.70;;;12.00;;
84913;SDS011;75177;43.832;5.974;2024-03-02T09:24:44;15.25;;;7.10;;
84913;SDS011;75177;43.832;5.974;2024-03-02T09:27:09;17.88;;;8.45;;
84913;SDS011;75177;43.832;5.974;2024-03-02T09:29:34;13.48;;;6.03;;
84913;SDS011;75177;43.832;5.974;2024-03-02T09:32:00;13.48;;;6.57;;
84913;SDS011;75177;43.832;5.974;2024-03-02T09:34:25;16.90;;;8.38;;
84913;SDS011;75177;43.832;5.974;2024-03-02T09:36:51;19.08;;;9.00;;
84913;SDS011;75177;43.832;5.974;2024-03-02T09:39:17;26.23;;;11.95;;
84913;SDS011;75177;43.832;5.974;2024-03-02T09:41:43;20.20;;;9.55;;
84913;SDS011;75177;43.832;5.974;2024-03-02T09:44:09;21.85;;;10.40;;
84913;SDS011;75177;43.832;5.974;2024-03-02T09:46:35;22.77;;;10.55;;
84913;SDS011;75177;43.832;5.974;2024-03-02T09:49:01;23.33;;;11.27;;
84913;SDS011;75177;43.832;5.974;2024-03-02T09:51:27;17.70;;;8.55;;
84913;SDS011;75177;43.832;5.974;2024-03-02T09:53:53;16.42;;;7.13;;
84913;SDS011;75177;43.832;5.974;2024-03-02T09:56:21;20.95;;;9.90;;
84913;SDS011;75177;43.832;5.974;2024-03-02T09:58:46;15.80;;;7.28;;
84913;SDS011;75177;43.832;5.974;2024-03-02T10:01:12;16.92;;;7.72;;
84913;SDS011;75177;43.832;5.974;2024-03-02T10:03:38;16.20;;;7.03;;
84913;SDS011;75177;43.832;5.974;2024-03-02T10:06:23;20.23;;;9.55;;
84913;SDS011;75177;43.832;5.974;2024-03-02T10:08:50;13.93;;;6.90;;
84913;SDS011;75177;43.832;5.974;2024-03-02T10:11:36;12.77;;;6.47;;
84913;SDS011;75177;43.832;5.974;2024-03-02T10:14:09;17.85;;;8.30;;
84913;SDS011;75177;43.832;5.974;2024-03-02T10:16:36;30.75;;;12.50;;
84913;SDS011;75177;43.832;5.974;2024-03-02T10:19:16;23.45;;;10.25;;
84913;SDS011;75177;43.832;5.974;2024-03-02T10:21:49;20.50;;;9.95;;
84913;SDS011;75177;43.832;5.974;2024-03-02T10:24:16;24.75;;;11.77;;
84913;SDS011;75177;43.832;5.974;2024-03-02T10:26:43;23.05;;;10.85;;
84913;SDS011;75177;43.832;5.974;2024-03-02T10:29:09;32.30;;;14.90;;
84913;SDS011;75177;43.832;5.974;2024-03-02T10:31:36;17.60;;;8.10;;
84913;SDS011;75177;43.832;5.974;2024-03-02T10:34:03;26.65;;;11.63;;
84913;SDS011;75177;43.832;5.974;2024-03-02T10:36:28;28.02;;;13.00;;
84913;SDS011;75177;43.832;5.974;2024-03-02T10:38:55;21.45;;;10.68;;
84913;SDS011;75177;43.832;5.974;2024-03-02T10:41:26;18.98;;;8.70;;
84913;SDS011;75177;43.832;5.974;2024-03-02T10:43:53;23.90;;;10.48;;
84913;SDS011;75177;43.832;5.974;2024-03-02T10:46:24;24.30;;;11.57;;
84913;SDS011;75177;43.832;5.974;2024-03-02T10:48:54;22.48;;;7.38;;
84913;SDS011;75177;43.832;5.974;2024-03-02T10:51:20;13.23;;;5.07;;
84913;SDS011;75177;43.832;5.974;2024-03-02T10:53:45;21.02;;;8.70;;
84913;SDS011;75177;43.832;5.974;2024-03-02T10:56:11;24.02;;;10.00;;
84913;SDS011;75177;43.832;5.974;2024-03-02T10:58:47;29.65;;;13.07;;
84913;SDS011;75177;43.832;5.974;2024-03-02T11:01:20;14.30;;;6.28;;
84913;SDS011;75177;43.832;5.974;2024-03-02T11:03:46;18.45;;;7.32;;
84913;SDS011;75177;43.832;5.974;2024-03-02T11:06:12;19.75;;;8.60;;
84913;SDS011;75177;43.832;5.974;2024-03-02T11:08:38;15.77;;;7.25;;
84913;SDS011;75177;43.832;5.974;2024-03-02T11:13:33;26.25;;;10.18;;
84913;SDS011;75177;43.832;5.974;2024-03-02T11:16:02;22.50;;;7.83;;
84913;SDS011;75177;43.832;5.974;2024-03-02T11:18:31;15.23;;;6.20;;
84913;SDS011;75177;43.832;5.974;2024-03-02T11:20:58;23.67;;;8.55;;
84913;SDS011;75177;43.832;5.974;2024-03-02T11:23:34;18.55;;;9.15;;
84913;SDS011;75177;43.832;5.974;2024-03-02T11:26:19;14.88;;;6.63;;
84913;SDS011;75177;43.832;5.974;2024-03-02T11:28:45;16.80;;;6.72;;
84913;SDS011;75177;43.832;5.974;2024-03-02T11:31:10;27.70;;;9.65;;
84913;SDS011;75177;43.832;5.974;2024-03-02T11:33:36;22.05;;;9.02;;
84913;SDS011;75177;43.832;5.974;2024-03-02T11:36:02;20.75;;;8.80;;
84913;SDS011;75177;43.832;5.974;2024-03-02T11:38:28;20.80;;;6.93;;
84913;SDS011;75177;43.832;5.974;2024-03-02T11:40:55;17.73;;;8.35;;
84913;SDS011;75177;43.832;5.974;2024-03-02T11:43:21;23.38;;;8.57;;
84913;SDS011;75177;43.832;5.974;2024-03-02T11:45:48;22.13;;;7.22;;
84913;SDS011;75177;43.832;5.974;2024-03-02T11:48:15;16.55;;;5.93;;
84913;SDS011;75177;43.832;5.974;2024-03-02T11:53:07;17.10;;;6.00;;
84913;SDS011;75177;43.832;5.974;2024-03-02T11:58:01;16.70;;;6.32;;
84913;SDS011;75177;43.832;5.974;2024-03-02T12:00:27;36.47;;;15.18;;
84913;SDS011;75177;43.832;5.974;2024-03-02T12:03:03;25.60;;;12.48;;
84913;SDS011;75177;43.832;5.974;2024-03-02T12:05:30;23.45;;;11.93;;
84913;SDS011;75177;43.832;5.974;2024-03-02T12:07:57;29.77;;;10.73;;
84913;SDS011;75177;43.832;5.974;2024-03-02T12:10:31;25.38;;;10.85;;
84913;SDS011;75177;43.832;5.974;2024-03-02T12:12:57;23.58;;;10.32;;
84913;SDS011;75177;43.832;5.974;2024-03-02T12:15:27;29.17;;;11.10;;
84913;SDS011;75177;43.832;5.974;2024-03-02T12:17:56;27.30;;;10.73;;
84913;SDS011;75177;43.832;5.974;2024-03-02T12:20:23;19.85;;;8.05;;
84913;SDS011;75177;43.832;5.974;2024-03-02T12:22:50;18.98;;;8.10;;
84913;SDS011;75177;43.832;5.974;2024-03-02T12:25:17;28.60;;;11.38;;
84913;SDS011;75177;43.832;5.974;2024-03-02T12:27:44;24.30;;;8.65;;
84913;SDS011;75177;43.832;5.974;2024-03-02T12:30:11;24.30;;;9.68;;
84913;SDS011;75177;43.832;5.974;2024-03-02T12:32:38;29.15;;;10.07;;
84913;SDS011;75177;43.832;5.974;2024-03-02T12:35:04;19.83;;;8.25;;
84913;SDS011;75177;43.832;5.974;2024-03-02T12:37:30;26.08;;;9.40;;
84913;SDS011;75177;43.832;5.974;2024-03-02T12:39:56;21.95;;;7.57;;
84913;SDS011;75177;43.832;5.974;2024-03-02T12:42:24;16.88;;;7.68;;
84913;SDS011;75177;43.832;5.974;2024-03-02T12:44:53;32.80;;;8.93;;
84913;SDS011;75177;43.832;5.974;2024-03-02T12:47:21;25.75;;;10.30;;
84913;SDS011;75177;43.832;5.974;2024-03-02T12:49:46;29.95;;;11.32;;
84913;SDS011;75177;43.832;5.974;2024-03-02T12:52:12;25.90;;;10.23;;
84913;SDS011;75177;43.832;5.974;2024-03-02T12:54:38;28.45;;;9.18;;
84913;SDS011;75177;43.832;5.974;2024-03-02T12:57:04;24.00;;;9.57;;
84913;SDS011;75177;43.832;5.974;2024-03-02T12:59:29;19.08;;;7.05;;
84913;SDS011;75177;43.832;5.974;2024-03-02T13:01:56;24.90;;;9.00;;
84913;SDS011;75177;43.832;5.974;2024-03-02T13:04:26;35.78;;;9.90;;
84913;SDS011;75177;43.832;5.974;2024-03-02T13:06:56;38.72;;;14.10;;
84913;SDS011;75177;43.832;5.974;2024-03-02T13:09:22;30.63;;;11.98;;
84913;SDS011;75177;43.832;5.974;2024-03-02T13:11:48;30.80;;;11.52;;
84913;SDS011;75177;43.832;5.974;2024-03-02T13:14:14;21.35;;;9.00;;
84913;SDS011;75177;43.832;5.974;2024-03-02T13:16:40;29.02;;;9.20;;
84913;SDS011;75177;43.832;5.974;2024-03-02T13:19:10;23.77;;;9.00;;
84913;SDS011;75177;43.832;5.974;2024-03-02T13:21:36;32.75;;;9.57;;
84913;SDS011;75177;43.832;5.974;2024-03-02T13:24:02;23.00;;;8.43;;
84913;SDS011;75177;43.832;5.974;2024-03-02T13:26:28;31.08;;;9.77;;
84913;SDS011;75177;43.832;5.974;2024-03-02T13:28:54;26.52;;;9.95;;
84913;SDS011;75177;43.832;5.974;2024-03-02T13:31:19;31.55;;;8.15;;
84913;SDS011;75177;43.832;5.974;2024-03-02T13:33:46;25.48;;;8.07;;
84913;SDS011;75177;43.832;5.974;2024-03-02T13:36:11;25.50;;;7.65;;
84913;SDS011;75177;43.832;5.974;2024-03-02T13:38:37;23.45;;;7.18;;
84913;SDS011;75177;43.832;5.974;2024-03-02T13:41:02;20.40;;;7.35;;
84913;SDS011;75177;43.832;5.974;2024-03-02T13:43:28;29.77;;;7.13;;
84913;SDS011;75177;43.832;5.974;2024-03-02T13:45:56;23.90;;;7.75;;
84913;SDS011;75177;43.832;5.974;2024-03-02T13:48:23;28.40;;;8.95;;
84913;SDS011;75177;43.832;5.974;2024-03-02T13:50:50;22.38;;;7.90;;
84913;SDS011;75177;43.832;5.974;2024-03-02T13:53:17;24.83;;;7.72;;
84913;SDS011;75177;43.832;5.974;2024-03-02T13:55:43;23.80;;;7.43;;
84913;SDS011;75177;43.832;5.974;2024-03-02T13:58:09;24.65;;;7.10;;
84913;SDS011;75177;43.832;5.974;2024-03-02T14:00:35;17.38;;;6.63;;
84913;SDS011;75177;43.832;5.974;2024-03-02T14:03:01;18.52;;;6.85;;
84913;SDS011;75177;43.832;5.974;2024-03-02T14:05:28;26.63;;;9.10;;
84913;SDS011;75177;43.832;5.974;2024-03-02T14:07:54;25.58;;;8.65;;
84913;SDS011;75177;43.832;5.974;2024-03-02T14:10:19;26.20;;;8.45;;
84913;SDS011;75177;43.832;5.974;2024-03-02T14:12:48;32.88;;;7.80;;
84913;SDS011;75177;43.832;5.974;2024-03-02T14:15:13;24.00;;;7.47;;
84913;SDS011;75177;43.832;5.974;2024-03-02T14:17:39;23.63;;;7.93;;
84913;SDS011;75177;43.832;5.974;2024-03-02T14:20:04;25.27;;;8.35;;
84913;SDS011;75177;43.832;5.974;2024-03-02T14:22:31;23.95;;;8.98;;
84913;SDS011;75177;43.832;5.974;2024-03-02T14:24:57;21.42;;;7.28;;
84913;SDS011;75177;43.832;5.974;2024-03-02T14:27:22;27.42;;;7.13;;
84913;SDS011;75177;43.832;5.974;2024-03-02T14:29:48;29.67;;;8.23;;
84913;SDS011;75177;43.832;5.974;2024-03-02T14:32:13;27.90;;;8.60;;
84913;SDS011;75177;43.832;5.974;2024-03-02T14:34:39;25.63;;;7.78;;
84913;SDS011;75177;43.832;5.974;2024-03-02T14:37:04;24.88;;;6.70;;
84913;SDS011;75177;43.832;5.974;2024-03-02T14:39:30;19.63;;;6.70;;
84913;SDS011;75177;43.832;5.974;2024-03-02T14:41:59;27.42;;;8.55;;
84913;SDS011;75177;43.832;5.974;2024-03-02T14:44:25;26.88;;;8.75;;
84913;SDS011;75177;43.832;5.974;2024-03-02T14:46:51;32.45;;;8.82;;
84913;SDS011;75177;43.832;5.974;2024-03-02T14:49:16;28.75;;;8.90;;